Weather observations for the past three days for
Chariton
Imperial (Metric)
Date Time (cdt) Wind (mph) Vis. (mi.) Weather Sky Cond. Temperature (ºF) Relative Humidity Wind Chill (°F) Heat Index (°F) Pressure Precipitation (in)
Air Dwpt 6 hour altimeter (in) sea level (mb) 1 hr 3 hr 6 hr
Max. Min.
10 14:55 NW 9 G 20 10.00 Fair CLR 68 26.6 21% 30.15 0.0
10 14:35 NW 13 G 24 10.00 Fair CLR 68 26.6 21% 30.14 0.0
10 14:15 NW 10 G 22 10.00 Fair CLR 66.2 24.8 21% 30.15 0.0
10 13:55 Vrbl 5 G 17 10.00 Fair CLR 64.4 28.4 26% 30.15 0.0
10 13:35 NW 18 10.00 Fair CLR 66.2 26.6 22% 30.16 0.0
10 13:15 NW 12 G 18 10.00 Fair CLR 66.2 26.6 22% 30.16 0.0
10 12:55 N 14 10.00 Fair CLR 64.4 24.8 22% 30.16 0.0
10 12:35 NW 8 G 17 9.00 Fair CLR 64.4 26.6 24% 30.16 0.0
10 12:15 NE 8 10.00 Fair CLR 62.6 28.4 27% 30.17 0.0
10 11:55 Vrbl 6 G 17 9.00 Fair CLR 62.6 24.8 24% 30.17 0.0
10 11:35 N 8 G 15 10.00 Fair CLR 62.6 24.8 24% 30.18 0.0
10 11:15 NE 6 10.00 Fair CLR 60.8 28.4 29% 30.18 0.0
10 10:55 NW 8 G 14 10.00 Fair CLR 60.8 24.8 25% 30.18 0.0
10 10:35 NW 5 G 13 10.00 Fair CLR 59 24.8 27% 30.18 0.0
10 10:15 E 7 10.00 Fair CLR 59 26.6 29% 30.17 0.0
10 09:55 N 6 10.00 Fair CLR 59 24.8 27% 30.16 0.0
10 09:35 Vrbl 5 10.00 Fair CLR 57.2 26.6 31% 30.15 0.0
10 09:15 Vrbl 5 10.00 Fair CLR 55.4 26.6 33% 30.15 0.0
10 08:55 N 6 10.00 Fair CLR 53.6 26.6 35% 30.14 0.0
10 08:35 Vrbl 3 10.00 Fair CLR 51.8 28.4 41% 30.14 0.0
10 08:15 Calm 10.00 Fair CLR 50 30.2 47% 30.14 0.0
10 07:55 NW 5 10.00 Fair CLR 48.2 28.4 46% 47 30.14 0.0
10 07:35 NW 6 10.00 Fair CLR 46.4 28.4 50% 44 30.13 0.0
10 07:15 NW 5 10.00 Fair CLR 44.6 28.4 53% 43 30.12 0.0
10 06:55 W 6 10.00 Fair CLR 41 28.4 61% 38 30.12 0.0
10 06:35 W 6 10.00 Fair CLR 41 26.6 57% 38 30.12 0.0
10 06:15 W 5 10.00 Fair CLR 41 24.8 53% 38 30.11 0.0
10 05:55 NW 6 10.00 Fair CLR 41 24.8 53% 38 30.09 0.0
10 05:35 NW 5 10.00 Fair CLR 41 26.6 57% 38 30.09 0.0
10 05:15 NW 5 10.00 Fair CLR 41 24.8 53% 38 30.08 0.0
10 04:55 NW 5 10.00 Fair CLR 42.8 24.8 49% 41 30.07 0.0
10 04:35 N 6 10.00 Fair CLR 42.8 24.8 49% 40 30.07 0.0
10 04:15 N 7 10.00 Fair CLR 42.8 24.8 49% 39 30.06 0.0
10 03:55 N 8 10.00 Fair CLR 42.8 24.8 49% 39 30.06 0.0
10 03:35 N 8 10.00 Fair CLR 44.6 23 43% 41 30.05 0.0
10 03:15 NW 7 10.00 Fair CLR 44.6 24.8 46% 41 30.05 0.0
10 02:55 N 7 10.00 Fair CLR 44.6 24.8 46% 41 30.05 0.0
10 02:35 N 7 10.00 Fair CLR 46.4 24.8 43% 43 30.03 0.0
10 02:15 N 6 10.00 Fair CLR 46.4 24.8 43% 44 30.03 0.0
10 01:55 N 5 10.00 Fair CLR 48.2 24.8 40% 47 30.03 0.0
10 01:35 N 5 10.00 Fair CLR 48.2 24.8 40% 47 30.02 0.0
10 01:15 N 6 10.00 Fair CLR 48.2 26.6 43% 46 30.01 0.0
10 00:55 N 7 10.00 Fair CLR 50 26.6 40% 48 29.99 0.0
10 00:35 N 8 10.00 Fair CLR 51.8 24.8 35% 29.99 0.0
10 00:15 N 9 10.00 Fair CLR 51.8 24.8 35% 29.98 0.0
09 23:55 N 10 10.00 Fair CLR 53.6 26.6 35% 29.97 0.0
09 23:35 N 9 10.00 Fair CLR 53.6 26.6 35% 29.96 0.0
09 23:15 N 10 10.00 Fair CLR 55.4 26.6 33% 29.95 0.0
09 22:55 N 10 10.00 Fair CLR 55.4 28.4 36% 29.95 0.0
09 22:35 N 12 10.00 Fair CLR 57.2 28.4 33% 29.94 0.0
09 22:15 N 12 10.00 Fair CLR 57.2 30.2 36% 29.93 0.0
09 21:55 N 8 10.00 A Few Clouds FEW044 FEW120 57.2 32 39% 29.92 0.0
09 21:35 N 7 10.00 Fair CLR 59 32 36% 29.91 0.0
09 21:15 N 6 10.00 Fair CLR 59 32 36% 29.89 0.0
09 20:55 N 9 10.00 Fair CLR 60.8 33.8 36% 29.88 0.0
09 20:35 N 8 10.00 Fair CLR 62.6 33.8 34% 29.86 0.0
09 20:15 N 8 10.00 Fair CLR 64.4 37.4 37% 29.86 0.0
09 19:55 N 8 G 15 10.00 Fair CLR 66.2 39.2 37% 29.84 0.0
09 19:35 N 9 G 17 10.00 Fair CLR 68 41 38% 29.83 0.0
09 19:15 N 10 10.00 Fair CLR 68 41 38% 29.82 0.0
09 18:55 N 15 10.00 Fair CLR 68 41 38% 29.82 0.0
09 18:35 N 15 G 23 10.00 Fair CLR 68 42.8 40% 29.82 0.0
09 18:15 N 14 G 21 10.00 Fair CLR 68 42.8 40% 29.81 0.0
09 17:55 N 16 10.00 A Few Clouds FEW120 68 42.8 40% 29.8 0.0
09 17:35 N 15 G 21 10.00 Fair CLR 68 42.8 40% 29.8 0.0
09 17:15 N 12 10.00 Fair CLR 69.8 41 35% 29.79 0.0
09 16:55 N 13 10.00 Fair CLR 69.8 37.4 31% 29.78 0.0
09 16:35 N 10 10.00 Fair CLR 69.8 33.8 27% 29.78 0.0
09 16:15 N 13 G 20 10.00 A Few Clouds FEW110 71.6 33.8 25% 29.78 0.0
09 15:55 N 13 10.00 Fair CLR 71.6 33.8 25% 29.77 0.0
09 15:35 NW 14 9.00 Fair CLR 73.4 32 22% 29.77 0.0
09 15:15 NW 15 G 21 10.00 Fair CLR 73.4 32 22% 29.77 0.0
09 14:55 N 14 9.00 Fair CLR 75.2 33.8 22% 76 29.77 0.0
09 14:35 NW 10 G 21 10.00 Fair CLR 77 32 19% 77 29.77 0.0
09 14:15 NW 9 G 25 10.00 Fair CLR 77 33.8 21% 77 29.77 0.0
09 13:55 NW 10 G 20 10.00 Fair CLR 77 33.8 21% 77 29.77 0.0
09 13:35 NW 13 G 22 10.00 Fair CLR 75.2 33.8 22% 76 29.76 0.0
09 13:15 NW 8 G 22 10.00 Fair CLR 75.2 32 21% 76 29.76 0.0
09 12:55 NW 10 10.00 Fair CLR 75.2 33.8 22% 76 29.76 0.0
09 12:35 NW 13 G 18 10.00 Fair CLR 75.2 33.8 22% 76 29.76 0.0
09 12:15 NW 15 9.00 Fair CLR 73.4 35.6 25% 29.77 0.0
09 11:55 N 14 G 22 9.00 Fair CLR 75.2 37.4 25% 77 29.77 0.0
09 11:35 N 14 G 24 9.00 Fair CLR 73.4 35.6 25% 29.76 0.0
09 11:15 NW 20 10.00 Fair CLR 75.2 32 21% 76 29.76 0.0
09 10:55 W 16 10.00 Fair CLR 73.4 33.8 23% 29.74 0.0
09 10:35 W 14 9.00 Fair CLR 71.6 33.8 25% 29.74 0.0
09 10:15 W 15 9.00 Fair CLR 69.8 35.6 29% 29.74 0.0
09 09:55 W 12 10.00 Fair CLR 69.8 35.6 29% 29.73 0.0
09 09:35 W 8 9.00 Fair CLR 68 39.2 35% 29.74 0.0
09 09:15 SW 6 9.00 Fair CLR 64.4 42.8 46% 29.74 0.0
09 08:55 W 5 10.00 Fair CLR 60.8 42.8 52% 29.74 0.0
09 08:35 W 8 10.00 Fair CLR 59 44.6 59% 29.74 0.0
09 08:15 W 8 0.00 Fair CLR 55.4 46.4 72% 29.74 0.0
09 07:55 W 9 9.00 Fair CLR 53.6 53.6 100% 29.73 0.0
09 07:35 W 8 10.00 Fair CLR 51.8 51.8 100% 29.73 0.0
09 07:15 W 6 10.00 Fair CLR 50 50 100% 48 29.73 0.0
09 06:55 W 6 10.00 Fair CLR 48.2 48.2 100% 46 29.72 0.0
09 06:35 SW 8 10.00 Fair CLR 46.4 46.4 100% 43 29.71 0.0
09 06:15 W 8 10.00 Fair CLR 46.4 46.4 100% 43 29.7 0.0
09 05:55 SW 7 10.00 Fair CLR 46.4 46.4 100% 43 29.7 0.0
09 05:35 SW 7 10.00 Fair CLR 46.4 46.4 100% 43 29.69 0.0
09 05:15 W 8 10.00 A Few Clouds FEW032 FEW039 48.2 48.2 100% 45 29.69 0.0
09 04:55 W 6 10.00 Fair CLR 48.2 48.2 100% 46 29.7 0.0
09 04:35 W 8 10.00 A Few Clouds FEW032 FEW041 48.2 48.2 100% 45 29.69 0.0
09 04:15 W 8 10.00 A Few Clouds FEW024 FEW031 FEW040 50 50 100% 47 29.7 0.0
09 03:55 SW 8 10.00 Fair CLR 50 50 100% 47 29.69 0.0
09 03:35 W 8 10.00 Fair CLR 51.8 51.8 100% 29.69 0.0
09 03:15 SW 8 10.00 Fair CLR 51.8 51.8 100% 29.69 0.0
09 02:55 W 9 10.00 Fair CLR 51.8 51.8 100% 29.69 0.0
09 02:35 SW 8 10.00 Fair CLR 51.8 51.8 100% 29.69 0.0
09 02:15 SW 7 10.00 Fair CLR 53.6 53.6 100% 29.7 0.0
09 01:55 SW 8 10.00 A Few Clouds FEW110 53.6 53.6 100% 29.7 0.0
09 01:35 SW 8 10.00 Fair CLR 53.6 53.6 100% 29.7 0.0
09 01:15 SW 7 10.00 Fair CLR 53.6 53.6 100% 29.7 0.0
09 00:55 SW 9 G 21 10.00 Fair CLR 53.6 53.6 100% 29.7 0.0
09 00:35 SW 8 10.00 Fair CLR 55.4 55.4 100% 29.7 0.0
09 00:15 SW 8 10.00 Fair CLR 55.4 55.4 100% 29.71 0.0
08 23:55 SW 8 10.00 Fair CLR 55.4 55.4 100% 29.71 0.0
08 23:35 SW 8 10.00 Fair CLR 53.6 53.6 100% 29.71 0.0
08 23:15 S 8 10.00 Fair CLR 53.6 53.6 100% 29.72 0.0
08 22:55 S 8 10.00 A Few Clouds FEW110 55.4 55.4 100% 29.72 0.0
08 22:35 S 9 0.00 NULL NULL 55.4 55.4 100% 29.72 0.0
08 22:15 S 9 10.00 A Few Clouds FEW110 55.4 55.4 100% 29.72 0.0
08 21:55 S 10 10.00 Partly Cloudy FEW075 FEW100 SCT120 57.2 53.6 88% 29.71 0.0
08 21:35 SW 12 10.00 Overcast FEW070 BKN095 OVC110 59 51.8 77% 29.71 0.0
08 21:15 SW 7 10.00 Partly Cloudy SCT110 59 51.8 77% 29.72 0.0
08 20:55 S 12 10.00 Fair CLR 59 50 72% 29.7 0.0
08 20:35 S 10 10.00 Fair CLR 60.8 50 68% 29.7 0.0
08 20:15 S 12 9.00 Fair CLR 62.6 50 64% 29.69 0.0
08 19:55 S 13 G 18 10.00 Fair CLR 64.4 48.2 56% 29.69 0.0
08 19:35 S 14 10.00 Fair CLR 66.2 48.2 52% 29.68 0.0
08 19:15 S 14 G 21 10.00 Fair CLR 68 44.6 43% 29.68 0.0
08 18:55 SW 16 10.00 Fair CLR 68 42.8 40% 29.69 0.0
08 18:35 SW 10 10.00 Fair CLR 69.8 42.8 38% 29.69 0.0
08 18:15 SW 14 10.00 Fair CLR 69.8 42.8 38% 29.7 0.0
08 17:55 SW 12 9.00 Fair CLR 71.6 41 33% 29.7 0.0
08 17:35 SW 10 G 17 10.00 Fair CLR 71.6 39.2 31% 29.7 0.0
08 17:15 W 12 9.00 Fair CLR 71.6 37.4 29% 29.71 0.0
08 16:55 SW 10 9.00 Fair CLR 71.6 39.2 31% 29.71 0.0
08 16:35 Vrbl 5 9.00 Fair CLR 69.8 37.4 31% 29.72 0.0
08 16:15 W 12 10.00 Fair CLR 71.6 37.4 29% 29.72 0.0
08 15:55 W 10 10.00 Fair CLR 71.6 39.2 31% 29.73 0.0
08 15:35 SW 9 G 15 10.00 A Few Clouds FEW070 FEW085 71.6 39.2 31% 29.73 0.0
08 15:15 Vrbl 6 G 14 10.00 A Few Clouds FEW075 71.6 37.4 29% 29.74 0.0
08 14:55 W 9 G 17 10.00 Fair CLR 69.8 37.4 31% 29.75 0.0
08 14:35 SW 8 G 16 10.00 Fair CLR 69.8 39.2 33% 29.75 0.0
08 14:15 SW 9 G 15 10.00 Fair CLR 68 37.4 33% 29.76 0.0
08 13:55 SW 9 G 17 9.00 Fair CLR 68 37.4 33% 29.77 0.0
08 13:35 Vrbl 6 G 16 10.00 Fair CLR 68 37.4 33% 29.77 0.0
08 13:15 S 9 G 15 10.00 Fair CLR 68 44.6 43% 29.78 0.0
08 12:55 S 8 G 15 10.00 Fair CLR 66.2 42.8 43% 29.78 0.0
08 12:35 SW 9 9.00 Fair CLR 66.2 44.6 46% 29.78 0.0
08 12:15 S 7 10.00 Fair CLR 66.2 46.4 49% 29.79 0.0
08 11:55 S 6 9.00 Fair CLR 62.6 46.4 56% 29.79 0.0
08 11:35 S 8 10.00 Fair CLR 60.8 48.2 63% 29.8 0.0
08 11:15 S 5 10.00 Fair CLR 59 48.2 68% 29.8 0.0
08 10:55 Vrbl 5 10.00 Fair CLR 59 59 100% 29.81 0.0
08 10:35 Calm 10.00 Fair CLR 55.4 55.4 100% 29.8 0.0
08 10:15 S 5 9.00 Fair CLR 53.6 53.6 100% 29.81 0.0
08 09:55 S 7 9.00 Fair CLR 51.8 51.8 100% 29.8 0.0
08 09:35 Vrbl 7 9.00 Light Rain CLR 51.8 51.8 100% 29.81 0.0
08 09:15 Calm 9.00 Fair CLR 51.8 51.8 100% 29.83 0.0
08 08:55 Calm 10.00 A Few Clouds FEW095 51.8 51.8 100% 29.82 0.0
08 08:35 SE 5 10.00 Mostly Cloudy BKN095 50 50 100% 49 29.82 0.0
08 08:15 S 5 10.00 Fair CLR 48.2 48.2 100% 47 29.81 0.0
08 07:55 Calm 10.00 Fair CLR 48.2 48.2 100% 29.8 0.0
08 07:35 Calm 10.00 Fair CLR 46.4 46.4 100% 29.79 0.0
08 07:15 Calm 10.00 A Few Clouds FEW075 FEW085 46.4 46.4 100% 29.8 0.0
08 06:55 Calm 10.00 A Few Clouds FEW085 FEW110 44.6 44.6 100% 29.8 0.0
08 06:35 Calm 10.00 A Few Clouds FEW110 44.6 44.6 100% 29.81 0.0
08 06:15 S 3 8.00 Partly Cloudy FEW085 SCT120 44.6 44.6 100% 29.8 0.0
08 05:55 Calm 10.00 Overcast BKN085 OVC110 42.8 42.8 100% 29.8 0.0
08 05:35 N 5 10.00 Mostly Cloudy BKN090 BKN120 41 41 100% 38 29.8 0.0
08 05:15 Calm 10.00 Mostly Cloudy BKN100 BKN120 42.8 42.8 100% 29.81 0.0
08 04:55 Calm 10.00 Partly Cloudy SCT110 42.8 42.8 100% 29.81 0.0
08 04:35 NW 5 10.00 Partly Cloudy SCT110 42.8 42.8 100% 41 29.8 0.0
08 04:15 NW 6 10.00 Partly Cloudy SCT110 41 41 100% 38 29.8 0.0
08 03:55 NW 7 10.00 Fair CLR 41 41 100% 37 29.8 0.0
08 03:35 NW 6 10.00 Fair CLR 42.8 42.8 100% 40 29.8 0.0
08 03:15 NW 6 10.00 Fair CLR 44.6 44.6 100% 42 29.8 0.0
08 02:55 W 5 10.00 Fair CLR 44.6 44.6 100% 43 29.8 0.0
08 02:35 SW 3 10.00 A Few Clouds FEW037 46.4 46.4 100% 29.8 0.0
08 02:15 W 6 10.00 Fair CLR 46.4 46.4 100% 44 29.8 0.0
08 01:55 SW 6 10.00 Fair CLR 50 42.8 76% 48 29.8 0.0
08 01:35 SW 6 10.00 Fair CLR 50 42.8 76% 48 29.81 0.0
08 01:15 SW 5 10.00 A Few Clouds FEW040 50 42.8 76% 49 29.81 0.0
08 00:55 SW 3 10.00 Fair CLR 51.8 42.8 72% 29.81 0.0
08 00:35 S 8 10.00 Fair CLR 50 42.8 76% 47 29.8 0.0
08 00:15 S 5 10.00 Fair CLR 51.8 42.8 72% 29.8 0.0
07 23:55 S 5 10.00 Fair CLR 51.8 42.8 72% 29.81 0.0
07 23:35 S 5 0.00 Fair CLR 53.6 41 63% 29.81 0.0
07 23:15 S 5 10.00 Fair CLR 57.2 41 55% 29.81 0.0
07 22:55 Calm 10.00 Fair CLR 53.6 41 63% 29.81 0.0
07 22:35 NE 5 10.00 Fair CLR 55.4 41 59% 29.81 0.0
07 22:15 N 6 10.00 Fair CLR 53.6 39.2 58% 29.8 0.0
07 21:55 SE 5 10.00 Fair CLR 57.2 41 55% 29.8 0.0
07 21:35 S 8 10.00 A Few Clouds FEW085 59 41 51% 29.8 0.0
07 21:15 S 9 10.00 Overcast OVC090 59 39.2 48% 29.79 0.0
07 20:55 S 9 10.00 Overcast OVC090 59 39.2 48% 29.78 0.0
07 20:35 S 8 8.00 Overcast BKN090 OVC110 60.8 39.2 45% 29.78 0.0
07 20:15 S 7 10.00 Mostly Cloudy BKN090 BKN110 62.6 39.2 42% 29.77 0.0
07 19:55 S 8 10.00 Mostly Cloudy BKN090 BKN110 64.4 37.4 37% 29.77 0.0
07 19:35 S 7 9.00 Partly Cloudy SCT090 SCT110 64.4 37.4 37% 29.77 0.0
07 19:15 SW 8 10.00 Fair CLR 66.2 35.6 32% 29.77 0.0
07 18:55 SW 12 9.00 Fair CLR 66.2 35.6 32% 29.77 0.0
07 18:35 SW 12 7.00 A Few Clouds FEW090 66.2 35.6 32% 29.77 0.0
07 18:15 SW 13 10.00 A Few Clouds FEW090 66.2 35.6 32% 29.78 0.0
07 17:55 SW 10 G 17 10.00 Partly Cloudy SCT090 66.2 37.4 35% 29.78 0.0
07 17:35 SW 12 G 21 10.00 Partly Cloudy SCT095 SCT120 66.2 35.6 32% 29.79 0.0
07 17:15 SW 12 9.00 Partly Cloudy FEW085 SCT110 68 35.6 30% 29.79 0.0
07 16:55 SW 10 G 20 9.00 A Few Clouds FEW080 FEW110 66.2 33.8 30% 29.8 0.0
07 16:35 W 12 G 21 10.00 A Few Clouds FEW080 FEW110 68 33.8 28% 29.8 0.0
07 16:15 SW 10 G 22 10.00 Partly Cloudy SCT075 SCT100 66.2 35.6 32% 29.81 0.0
07 15:55 SW 14 G 22 10.00 Partly Cloudy SCT095 66.2 33.8 30% 29.81 0.0
07 15:35 SW 14 G 24 10.00 Partly Cloudy FEW075 FEW090 SCT110 68 33.8 28% 29.82 0.0
07 15:15 W 12 G 22 10.00 Mostly Cloudy SCT080 BKN085 BKN110 66.2 33.8 30% 29.83 0.0
Date Time (cdt) Wind (mph) Vis. (mi.) Weather Sky Cond. Air Dwpt Max. Min. Relative Humidity Wind Chill (°F) Heat Index (°F) altimeter (in) sea level (mb) 1 hr 3 hr 6 hr
6 hour
Temperature (ºF) Pressure Precipitation (in)